KMUI/MUI METAR and TAF weather

Enter ICAO airport designator
Station Type Date Time Source
KMUI METAR 2020/04/10 17:56 UTC NOAA

KMUI 101756Z 29013G34KT 10SM BKN048 OVC055 07/M05 A2958 RMK AO2A PK WND 29042/28 SLP022 60000 T00651049 10074 20042 50014


Station Type Date Time Source
KMUI Decoded METAR 2020/04/10 17:56 UTC NOAA

Muir Army Air Field / Indiantown, PA, United States (KMUI) 40-26N 076-34W
Apr 10, 2020 - 01:56 PM EDT / 2020.04.10 1756 UTC
Wind: from the WNW (290 degrees) at 15 MPH (13 KT) gusting to 39 MPH (34 KT):0
Visibility: 10 mile(s):0
Sky conditions: overcast
Temperature: 43.7 F (6.5 C)
Dew Point: 23.2 F (-4.9 C)
Relative Humidity: 43%
Pressure (altimeter): 29.58 in. Hg (1001 hPa)
Pressure tendency: 0.04 inches (1.4 hPa) higher than three hours ago
ob: KMUI 101756Z 29013G34KT 10SM BKN048 OVC055 07/M05 A2958 RMK AO2A PK WND 29042/28 SLP022 60000 T00651049 10074 20042 50014
cycle: 18

Station Type Date Time Source
KMUI TAF 2020/04/10 14:03 UTC NOAA

TAF
AMD KMUI 101452Z 1014/1117 30025G35KT 9999 BKN050 520004 QNH2950INS
TEMPO 1014/1023 30035G45KT
BECMG 1023/1024 30012KT 9999 FEW050 510053 QNH2971INS
BECMG 1114/1115 30012G25KT 9999 SCT050 510053 QNH2993INS TX08/1017Z TN00/1108Z

Example: see airport list